createdAt,value
2023-01-17T00:02:17.021Z,96040.20
2023-01-17T00:05:04.331Z,96043.55
2023-01-17T00:07:51.469Z,96042.55
2023-01-17T00:10:25.494Z,96042.57
2023-01-17T00:12:59.464Z,96036.13
2023-01-17T00:15:30.776Z,96026.95
2023-01-17T00:17:59.765Z,96018.55
2023-01-17T00:20:49.388Z,96014.75
2023-01-17T00:24:01.681Z,96006.40
2023-01-17T00:26:31.939Z,96010.64
2023-01-17T00:29:00.402Z,96012.17
2023-01-17T00:31:28.562Z,96013.45
2023-01-17T00:33:56.787Z,96017.91
2023-01-17T00:36:24.879Z,96016.09
2023-01-17T00:38:53.366Z,96018.68
2023-01-17T00:41:21.395Z,96019.66
2023-01-17T00:44:07.978Z,96013.95
2023-01-17T00:46:55.029Z,95997.57
2023-01-17T00:49:41.875Z,95993.02
2023-01-17T00:52:28.507Z,95994.42
2023-01-17T00:55:15.440Z,95983.70
2023-01-17T00:58:02.478Z,95986.49
2023-01-17T01:00:49.702Z,95994.97
2023-01-17T01:03:36.639Z,95979.63
2023-01-17T01:06:24.960Z,95979.99
2023-01-17T01:09:11.681Z,95978.02
2023-01-17T01:11:58.548Z,95981.05
2023-01-17T01:14:46.323Z,95976.48
2023-01-17T01:17:32.932Z,95983.09
2023-01-17T01:20:19.811Z,95978.60
2023-01-17T01:23:07.216Z,95977.77
2023-01-17T01:25:55.203Z,95976.20
2023-01-17T01:28:42.384Z,95976.96
2023-01-17T01:31:29.204Z,95967.33
2023-01-17T01:33:57.319Z,95968.84
2023-01-17T01:36:25.723Z,95963.23
2023-01-17T01:38:54.685Z,95957.39
2023-01-17T01:41:23.206Z,95958.14
2023-01-17T01:43:53.838Z,95961.54
2023-01-17T01:46:24.589Z,95963.43
2023-01-17T01:49:06.776Z,95966.08
2023-01-17T01:51:51.140Z,95967.52
2023-01-17T01:54:28.324Z,95959.62
2023-01-17T01:57:01.724Z,95960.46
2023-01-17T01:59:32.380Z,95957.43
2023-01-17T02:02:01.708Z,95968.58
2023-01-17T02:04:29.927Z,95977.08
2023-01-17T02:07:10.503Z,95972.21
2023-01-17T02:09:38.790Z,95979.25
2023-01-17T02:12:08.257Z,95986.61
2023-01-17T02:14:36.396Z,95989.56
2023-01-17T02:17:32.516Z,95981.23
2023-01-17T02:20:06.596Z,95972.21
2023-01-17T02:23:11.366Z,95971.23
2023-01-17T02:26:17.284Z,95963.13
2023-01-17T02:29:07.513Z,95960.27
2023-01-17T02:31:51.777Z,95963.38
2023-01-17T02:34:22.809Z,95961.64
2023-01-17T02:37:01.721Z,95954.21
2023-01-17T02:39:43.979Z,95945.14
2023-01-17T02:42:18.277Z,95940.52
2023-01-17T02:44:46.631Z,95948.17
2023-01-17T02:47:29.535Z,95955.81
2023-01-17T02:50:03.642Z,95955.35
2023-01-17T02:52:37.940Z,95948.30
2023-01-17T02:55:15.121Z,95944.19
2023-01-17T02:58:31.316Z,95945.85
2023-01-17T03:01:48.785Z,95943.03
2023-01-17T03:04:48.293Z,95933.39
2023-01-17T03:07:22.788Z,95929.05
2023-01-17T03:09:56.497Z,95930.49
2023-01-17T03:12:28.289Z,95926.98
2023-01-17T03:14:57.208Z,95926.91
2023-01-17T03:17:30.822Z,95926.98
2023-01-17T03:19:59.632Z,95925.02
2023-01-17T03:22:27.794Z,95922.66
2023-01-17T03:24:55.889Z,95923.04
2023-01-17T03:27:24.105Z,95916.06
2023-01-17T03:29:52.317Z,95917.21
2023-01-17T03:32:20.552Z,95915.77
2023-01-17T03:34:48.906Z,95915.39
2023-01-17T03:37:17.060Z,95913.95
2023-01-17T03:39:45.360Z,95910.46
2023-01-17T03:42:13.619Z,95908.02
2023-01-17T03:44:41.773Z,95905.83
2023-01-17T03:47:12.428Z,95903.23
2023-01-17T03:49:40.921Z,95900.66
2023-01-17T03:52:09.146Z,95895.80
2023-01-17T03:54:37.529Z,95892.10
2023-01-17T03:57:05.792Z,95888.75
2023-01-17T03:59:34.258Z,95893.77
2023-01-17T04:02:02.809Z,95889.80
2023-01-17T04:04:31.127Z,95888.06
2023-01-17T04:06:59.368Z,95890.58
2023-01-17T04:09:27.516Z,95886.63
2023-01-17T04:11:55.851Z,95887.69
2023-01-17T04:14:23.894Z,95880.18
2023-01-17T04:16:52.426Z,95879.35
2023-01-17T04:19:20.933Z,95877.08
2023-01-17T04:21:49.425Z,95877.79
2023-01-17T04:24:18.111Z,95881.30
2023-01-17T04:26:47.504Z,95877.59
2023-01-17T04:29:15.925Z,95878.05
2023-01-17T04:31:44.285Z,95875.86
2023-01-17T04:34:12.434Z,95877.77
2023-01-17T04:36:41.175Z,95877.62
2023-01-17T04:39:09.580Z,95871.58
2023-01-17T04:41:37.977Z,95870.30
2023-01-17T04:44:06.335Z,95875.56
2023-01-17T04:46:34.557Z,95873.86
2023-01-17T04:49:03.300Z,95878.83
2023-01-17T04:51:31.617Z,95885.64
2023-01-17T04:53:59.741Z,95886.90
2023-01-17T04:56:28.091Z,95887.20
2023-01-17T04:58:59.501Z,95887.77
2023-01-17T05:01:27.763Z,95886.29
2023-01-17T05:03:55.970Z,95883.08
2023-01-17T05:06:24.284Z,95885.67
2023-01-17T05:08:52.989Z,95890.05
2023-01-17T05:11:21.218Z,95880.22
2023-01-17T05:13:49.480Z,95885.12
2023-01-17T05:16:19.658Z,95887.07
2023-01-17T05:18:52.951Z,95879.75
2023-01-17T05:21:22.237Z,95874.70
2023-01-17T05:23:50.897Z,95875.78
2023-01-17T05:26:19.180Z,95872.92
2023-01-17T05:28:47.346Z,95874.94
2023-01-17T05:31:16.015Z,95878.27
2023-01-17T05:33:44.186Z,95880.03
2023-01-17T05:36:12.386Z,95881.27
2023-01-17T05:38:40.497Z,95878.64
2023-01-17T05:41:11.642Z,95887.39
2023-01-17T05:43:39.781Z,95887.26
2023-01-17T05:46:10.163Z,95876.80
2023-01-17T05:48:38.298Z,95877.73
2023-01-17T05:51:06.669Z,95877.82
2023-01-17T05:53:34.999Z,95873.15
2023-01-17T05:56:03.165Z,95862.48
2023-01-17T05:58:34.051Z,95865.93
2023-01-17T06:01:02.192Z,95873.70
2023-01-17T06:03:30.366Z,95877.06
2023-01-17T06:05:58.895Z,95886.11
2023-01-17T06:08:27.039Z,95894.70
2023-01-17T06:10:55.395Z,95895.16
2023-01-17T06:13:23.736Z,95893.35
2023-01-17T06:15:51.979Z,95891.36
2023-01-17T06:18:20.121Z,95899.41
2023-01-17T06:20:53.337Z,95892.64
2023-01-17T06:23:23.260Z,95897.95
2023-01-17T06:25:51.947Z,95895.89
2023-01-17T06:28:22.355Z,95888.05
2023-01-17T06:30:50.576Z,95888.44
2023-01-17T06:33:18.756Z,95896.92
2023-01-17T06:35:51.699Z,95906.96
2023-01-17T06:38:20.194Z,95907.65
2023-01-17T06:40:48.736Z,95906.35
2023-01-17T06:43:17.318Z,95915.02
2023-01-17T06:45:45.596Z,95923.23
2023-01-17T06:48:14.099Z,95928.02
2023-01-17T06:50:42.260Z,95937.08
2023-01-17T06:53:10.642Z,95942.88
2023-01-17T06:55:40.546Z,95952.85
2023-01-17T06:58:09.563Z,95961.02
2023-01-17T07:00:40.503Z,95969.59
2023-01-17T07:03:27.467Z,95967.15
2023-01-17T07:05:55.783Z,95970.33
2023-01-17T07:08:24.050Z,95973.44
2023-01-17T07:11:01.578Z,95970.33
2023-01-17T07:13:30.941Z,95970.87
2023-01-17T07:16:01.374Z,95969.90
2023-01-17T07:18:30.622Z,95967.02
2023-01-17T07:20:59.024Z,95957.77
2023-01-17T07:23:27.341Z,95961.20
2023-01-17T07:26:00.627Z,95969.55
2023-01-17T07:28:29.318Z,95966.25
2023-01-17T07:30:57.604Z,95956.55
2023-01-17T07:33:26.020Z,95941.75
2023-01-17T07:35:54.395Z,95930.60
2023-01-17T07:38:22.713Z,95933.94
2023-01-17T07:40:50.902Z,95951.54
2023-01-17T07:43:19.179Z,95963.53
2023-01-17T07:45:53.660Z,95961.77
2023-01-17T07:48:24.250Z,95960.38
2023-01-17T07:50:53.494Z,95954.52
2023-01-17T07:53:23.945Z,95955.23
2023-01-17T07:55:52.612Z,95953.95
2023-01-17T07:58:21.773Z,95949.33
2023-01-17T08:00:50.130Z,95948.64
2023-01-17T08:03:18.700Z,95946.52
2023-01-17T08:05:55.918Z,95942.52
2023-01-17T08:08:24.417Z,95955.08
2023-01-17T08:10:55.147Z,95962.87
2023-01-17T08:13:25.694Z,95965.56
2023-01-17T08:15:54.756Z,95971.69
2023-01-17T08:18:23.041Z,95975.52
2023-01-17T08:20:51.312Z,95972.04
2023-01-17T08:23:19.788Z,95968.02
2023-01-17T08:25:48.869Z,95963.64
2023-01-17T08:28:17.178Z,95961.67
2023-01-17T08:30:45.921Z,95953.41
2023-01-17T08:33:14.129Z,95952.19
2023-01-17T08:35:54.528Z,95958.71
2023-01-17T08:38:24.011Z,95962.68
2023-01-17T08:40:52.340Z,95960.63
2023-01-17T08:43:20.671Z,95958.77
2023-01-17T08:45:50.363Z,95974.27
2023-01-17T08:48:18.617Z,95985.66
2023-01-17T08:50:46.939Z,95990.48
2023-01-17T08:53:15.436Z,95988.35
2023-01-17T08:55:44.104Z,95988.55
2023-01-17T08:58:12.436Z,95991.25
2023-01-17T09:00:40.617Z,95994.24
2023-01-17T09:03:14.401Z,95987.02
2023-01-17T09:05:42.687Z,95985.29
2023-01-17T09:08:13.364Z,95987.13
2023-01-17T09:10:41.590Z,95979.69
2023-01-17T09:13:09.918Z,95973.45
2023-01-17T09:15:38.084Z,95972.30
2023-01-17T09:18:06.319Z,95979.83
2023-01-17T09:20:34.428Z,95989.48
2023-01-17T09:23:03.755Z,95994.17
2023-01-17T09:25:32.068Z,95995.52
2023-01-17T09:28:00.520Z,96002.09
2023-01-17T09:30:29.318Z,96008.47
2023-01-17T09:32:57.691Z,96007.46
2023-01-17T09:35:25.884Z,96006.65
2023-01-17T09:37:55.810Z,96007.33
2023-01-17T09:40:25.944Z,96016.16
2023-01-17T09:43:01.581Z,96019.52
2023-01-17T09:45:58.215Z,96016.87
2023-01-17T09:48:38.969Z,96022.84
2023-01-17T09:51:17.203Z,96036.64
2023-01-17T09:53:45.847Z,96040.46
2023-01-17T09:56:29.676Z,96039.63
2023-01-17T09:59:10.084Z,96040.97
2023-01-17T10:02:06.461Z,96022.91
2023-01-17T10:05:02.734Z,96007.73
2023-01-17T10:07:57.935Z,96004.72
2023-01-17T10:10:56.064Z,96007.86
2023-01-17T10:13:40.736Z,96023.20
2023-01-17T10:16:46.560Z,96019.15
2023-01-17T10:19:41.172Z,96008.75
2023-01-17T10:22:33.803Z,96006.33
2023-01-17T10:25:33.925Z,96001.50
2023-01-17T10:28:13.480Z,96003.42
2023-01-17T10:30:51.483Z,96010.02
2023-01-17T10:33:27.758Z,96010.56
2023-01-17T10:36:03.928Z,96013.42
2023-01-17T10:38:36.181Z,96008.26
2023-01-17T10:41:26.458Z,95996.95
2023-01-17T10:44:42.476Z,95998.29
2023-01-17T10:47:10.666Z,95997.88
2023-01-17T10:49:45.421Z,95985.07
2023-01-17T10:52:27.208Z,95974.78
2023-01-17T10:55:17.182Z,95962.45
2023-01-17T10:57:48.778Z,95963.77
2023-01-17T11:00:39.925Z,95961.32
2023-01-17T11:03:10.982Z,95962.73
2023-01-17T11:05:41.305Z,95965.47
2023-01-17T11:08:14.665Z,95960.27
2023-01-17T11:10:46.650Z,95949.67
2023-01-17T11:13:24.564Z,95945.42
2023-01-17T11:16:00.897Z,95944.33
2023-01-17T11:18:33.455Z,95952.05
2023-01-17T11:21:21.473Z,95954.08
2023-01-17T11:23:53.826Z,95952.11
2023-01-17T11:26:33.018Z,95949.92
2023-01-17T11:29:31.636Z,95949.41
2023-01-17T11:32:30.229Z,95955.31
2023-01-17T11:35:24.583Z,95962.70
2023-01-17T11:38:06.562Z,95970.22
2023-01-17T11:40:44.453Z,95975.73
2023-01-17T11:43:12.960Z,95974.31
2023-01-17T11:45:41.941Z,95975.71
2023-01-17T11:48:13.005Z,95976.11
2023-01-17T11:51:04.420Z,95973.10
2023-01-17T11:53:39.681Z,95973.35
2023-01-17T11:56:38.269Z,95979.00
2023-01-17T11:59:29.795Z,95987.52
2023-01-17T12:02:31.934Z,95990.13
2023-01-17T12:05:28.274Z,95994.86
2023-01-17T12:08:17.764Z,95986.07
2023-01-17T12:10:46.123Z,95976.32
2023-01-17T12:14:01.894Z,95970.42
2023-01-17T12:16:38.903Z,95964.40
2023-01-17T12:19:25.756Z,95966.31
2023-01-17T12:22:29.777Z,95972.59
2023-01-17T12:25:23.770Z,95977.46
2023-01-17T12:28:23.014Z,95976.41
2023-01-17T12:31:12.904Z,95969.10
2023-01-17T12:33:51.828Z,95966.63
2023-01-17T12:36:39.071Z,95965.15
2023-01-17T12:39:11.989Z,95961.43
2023-01-17T12:41:59.981Z,95959.67
2023-01-17T12:44:41.596Z,95956.27
2023-01-17T12:47:11.580Z,95954.41
2023-01-17T12:49:48.680Z,95959.17
2023-01-17T12:52:35.208Z,95961.84
2023-01-17T12:55:10.734Z,95963.05
2023-01-17T12:57:44.329Z,95967.13
2023-01-17T13:00:25.736Z,95963.45
2023-01-17T13:03:04.934Z,95962.48
2023-01-17T13:05:38.489Z,95961.89
2023-01-17T13:08:23.976Z,95967.24
2023-01-17T13:10:56.026Z,95968.30
2023-01-17T13:13:27.943Z,95972.81
2023-01-17T13:16:02.758Z,95984.63
2023-01-17T13:18:33.287Z,95997.08
2023-01-17T13:21:23.891Z,96007.73
2023-01-17T13:24:06.903Z,96018.43
2023-01-17T13:26:51.924Z,96025.61
2023-01-17T13:29:40.072Z,96021.08
2023-01-17T13:32:27.757Z,96018.48
2023-01-17T13:35:00.962Z,96022.46
2023-01-17T13:38:17.433Z,96017.23
2023-01-17T13:40:58.629Z,96021.27
2023-01-17T13:43:31.337Z,96021.86
2023-01-17T13:46:05.389Z,96022.27
2023-01-17T13:48:37.869Z,96009.65
2023-01-17T13:51:06.774Z,95997.84
2023-01-17T13:53:34.835Z,95985.16
2023-01-17T13:56:32.614Z,95985.11
2023-01-17T13:59:03.762Z,95988.45
2023-01-17T14:01:32.116Z,95990.95
2023-01-17T14:04:07.824Z,95991.09
2023-01-17T14:06:36.245Z,95993.46
2023-01-17T14:09:25.525Z,95999.42
2023-01-17T14:12:04.972Z,96000.58
2023-01-17T14:14:55.724Z,96000.02
2023-01-17T14:17:25.860Z,96006.97
2023-01-17T14:20:25.444Z,96015.95
2023-01-17T14:23:00.844Z,96027.92
2023-01-17T14:25:38.368Z,96025.80
2023-01-17T14:28:22.235Z,96027.61
2023-01-17T14:30:55.994Z,96032.74
2023-01-17T14:33:37.266Z,96036.60
2023-01-17T14:36:28.043Z,96041.23
2023-01-17T14:38:56.964Z,96039.05
2023-01-17T14:41:28.457Z,96040.42
2023-01-17T14:44:00.167Z,96041.04
2023-01-17T14:46:36.399Z,96039.79
2023-01-17T14:49:08.661Z,96041.42
2023-01-17T14:51:39.111Z,96043.48
2023-01-17T14:54:21.346Z,96041.67
2023-01-17T14:56:49.507Z,96041.08
2023-01-17T14:59:22.250Z,96044.80
2023-01-17T15:02:06.709Z,96045.88
2023-01-17T15:04:39.904Z,96047.01
2023-01-17T15:07:16.462Z,96050.88
2023-01-17T15:09:45.305Z,96052.43
2023-01-17T15:12:14.723Z,96053.25
2023-01-17T15:14:46.036Z,96044.95
2023-01-17T15:17:24.963Z,96037.85
2023-01-17T15:20:00.345Z,96039.36
2023-01-17T15:22:29.950Z,96036.23
2023-01-17T15:25:00.047Z,96040.23
2023-01-17T15:27:28.550Z,96049.40
2023-01-17T15:30:01.916Z,96047.93
2023-01-17T15:32:32.947Z,96044.79
2023-01-17T15:35:03.126Z,96050.50
2023-01-17T15:37:34.862Z,96058.02
2023-01-17T15:40:06.703Z,96061.34
2023-01-17T15:42:39.793Z,96062.67
2023-01-17T15:45:15.672Z,96052.33
2023-01-17T15:47:43.830Z,96042.35
2023-01-17T15:50:25.669Z,96042.80
2023-01-17T15:53:01.118Z,96036.77
2023-01-17T15:55:33.807Z,96028.29
2023-01-17T15:58:02.836Z,96022.09
2023-01-17T16:00:38.340Z,96026.57
2023-01-17T16:03:20.309Z,96044.30
2023-01-17T16:05:50.004Z,96060.95
2023-01-17T16:08:38.667Z,96062.13
2023-01-17T16:11:11.819Z,96060.38
2023-01-17T16:13:43.510Z,96059.03
2023-01-17T16:16:16.269Z,96056.48
2023-01-17T16:18:45.006Z,96057.98
2023-01-17T16:21:21.419Z,96046.55
2023-01-17T16:23:50.191Z,96042.27
2023-01-17T16:26:18.557Z,96041.34
2023-01-17T16:28:47.368Z,96046.50
2023-01-17T16:31:17.062Z,96051.96
2023-01-17T16:33:46.227Z,96055.27
2023-01-17T16:36:16.689Z,96050.53
2023-01-17T16:38:45.822Z,96047.60
2023-01-17T16:41:14.066Z,96043.71
2023-01-17T16:43:42.333Z,96040.23
2023-01-17T16:46:12.955Z,96031.79
2023-01-17T16:48:41.195Z,96026.09
2023-01-17T16:51:09.474Z,96023.90
2023-01-17T16:53:37.846Z,96026.85
2023-01-17T16:56:12.205Z,96022.04
2023-01-17T16:58:41.749Z,96017.85
2023-01-17T17:01:21.395Z,96020.80
2023-01-17T17:03:50.013Z,96022.05
2023-01-17T17:06:18.622Z,96015.79
2023-01-17T17:08:47.746Z,96011.21
2023-01-17T17:11:18.654Z,96004.05
2023-01-17T17:13:49.376Z,96003.41
2023-01-17T17:16:26.755Z,95994.07
2023-01-17T17:19:00.715Z,95983.33
2023-01-17T17:21:30.821Z,95968.42
2023-01-17T17:24:01.004Z,95967.10
2023-01-17T17:26:36.772Z,95977.37
2023-01-17T17:29:06.518Z,95983.02
2023-01-17T17:31:34.587Z,95975.88
2023-01-17T17:34:04.893Z,95971.20
2023-01-17T17:36:34.628Z,95971.64
2023-01-17T17:39:04.884Z,95979.11
2023-01-17T17:41:35.711Z,95974.86
2023-01-17T17:44:04.339Z,95973.42
2023-01-17T17:46:33.987Z,95969.53
2023-01-17T17:49:06.926Z,95966.52
2023-01-17T17:51:37.836Z,95960.02
2023-01-17T17:54:09.349Z,95957.16
2023-01-17T17:56:38.632Z,95946.41
2023-01-17T17:59:09.113Z,95942.76
2023-01-17T18:01:41.123Z,95941.33
2023-01-17T18:04:18.557Z,95936.79
2023-01-17T18:06:49.415Z,95944.41
2023-01-17T18:09:17.909Z,95950.20
2023-01-17T18:11:45.965Z,95952.85
2023-01-17T18:14:15.861Z,95952.28
2023-01-17T18:16:45.105Z,95946.77
2023-01-17T18:19:19.863Z,95938.05
2023-01-17T18:21:50.464Z,95925.17
2023-01-17T18:24:21.811Z,95914.19
2023-01-17T18:26:52.892Z,95919.89
2023-01-17T18:29:22.600Z,95920.54
2023-01-17T18:31:51.915Z,95913.66
2023-01-17T18:34:24.209Z,95909.54
2023-01-17T18:36:53.737Z,95904.12
2023-01-17T18:39:25.336Z,95892.53
2023-01-17T18:41:54.422Z,95880.19
2023-01-17T18:44:24.492Z,95868.55
2023-01-17T18:46:55.211Z,95860.77
2023-01-17T18:49:23.458Z,95857.55
2023-01-17T18:51:51.877Z,95851.73
2023-01-17T18:54:20.617Z,95857.27
2023-01-17T18:56:49.303Z,95850.30
2023-01-17T18:59:18.584Z,95840.17
2023-01-17T19:01:47.624Z,95838.79
2023-01-17T19:04:20.204Z,95833.08
2023-01-17T19:06:48.509Z,95836.62
2023-01-17T19:09:18.671Z,95832.88
2023-01-17T19:11:47.683Z,95828.45
2023-01-17T19:14:16.087Z,95822.23
2023-01-17T19:16:45.085Z,95819.61
2023-01-17T19:19:15.083Z,95822.16
2023-01-17T19:21:43.310Z,95823.40
2023-01-17T19:24:15.380Z,95811.03
2023-01-17T19:26:44.560Z,95802.48
2023-01-17T19:29:12.667Z,95799.63
2023-01-17T19:31:43.409Z,95793.20
2023-01-17T19:34:18.996Z,95793.55
2023-01-17T19:36:47.793Z,95798.84
2023-01-17T19:39:16.063Z,95798.70
2023-01-17T19:41:48.502Z,95796.15
2023-01-17T19:44:16.766Z,95797.77
2023-01-17T19:46:46.212Z,95796.50
2023-01-17T19:49:21.618Z,95792.10
2023-01-17T19:51:50.329Z,95795.01
2023-01-17T19:54:18.649Z,95788.11
2023-01-17T19:56:46.976Z,95780.08
2023-01-17T19:59:15.757Z,95776.06
2023-01-17T20:01:44.014Z,95773.55
2023-01-17T20:04:13.022Z,95772.50
2023-01-17T20:06:41.370Z,95769.23
2023-01-17T20:09:09.872Z,95773.27
2023-01-17T20:11:39.067Z,95774.27
2023-01-17T20:14:07.172Z,95778.00
2023-01-17T20:16:38.001Z,95776.27
2023-01-17T20:19:06.316Z,95774.77
2023-01-17T20:21:38.133Z,95771.31
2023-01-17T20:24:06.694Z,95766.25
2023-01-17T20:26:35.722Z,95764.52
2023-01-17T20:29:15.843Z,95760.08
2023-01-17T20:31:45.266Z,95763.05
2023-01-17T20:34:14.599Z,95759.34
2023-01-17T20:36:45.893Z,95754.94
2023-01-17T20:39:15.102Z,95754.10
2023-01-17T20:41:46.332Z,95758.14
2023-01-17T20:44:15.915Z,95753.89
2023-01-17T20:46:44.629Z,95755.32
2023-01-17T20:49:16.320Z,95743.48
2023-01-17T20:51:45.681Z,95732.98
2023-01-17T20:54:16.430Z,95729.27
2023-01-17T20:56:47.442Z,95722.66
2023-01-17T20:59:18.535Z,95721.83
2023-01-17T21:01:48.275Z,95723.41
2023-01-17T21:04:18.059Z,95711.73
2023-01-17T21:06:46.245Z,95700.11
2023-01-17T21:09:15.484Z,95691.91
2023-01-17T21:11:43.751Z,95685.00
2023-01-17T21:14:11.957Z,95691.48
2023-01-17T21:16:40.931Z,95692.64
2023-01-17T21:19:12.214Z,95692.36
2023-01-17T21:21:44.025Z,95675.37
2023-01-17T21:24:22.505Z,95680.92
2023-01-17T21:26:54.452Z,95676.84
2023-01-17T21:29:28.694Z,95675.73
2023-01-17T21:32:02.770Z,95680.70
2023-01-17T21:34:32.774Z,95679.86
2023-01-17T21:37:03.423Z,95673.34
2023-01-17T21:39:35.141Z,95664.77
2023-01-17T21:42:05.855Z,95661.84
2023-01-17T21:44:38.789Z,95647.34
2023-01-17T21:47:07.107Z,95658.13
2023-01-17T21:49:35.287Z,95665.89
2023-01-17T21:52:04.724Z,95660.42
2023-01-17T21:54:51.360Z,95656.85
2023-01-17T21:57:40.756Z,95653.20
2023-01-17T22:00:16.008Z,95650.04
2023-01-17T22:02:46.354Z,95647.60
2023-01-17T22:05:16.588Z,95647.58
2023-01-17T22:08:05.482Z,95647.56
2023-01-17T22:10:44.547Z,95646.17
2023-01-17T22:13:19.950Z,95636.11
2023-01-17T22:15:58.684Z,95617.71
2023-01-17T22:18:28.066Z,95631.58
2023-01-17T22:20:57.638Z,95635.66
2023-01-17T22:23:25.944Z,95635.26
2023-01-17T22:25:54.208Z,95641.99
2023-01-17T22:28:22.559Z,95637.89
2023-01-17T22:30:52.083Z,95642.38
2023-01-17T22:33:23.280Z,95639.27
2023-01-17T22:35:59.025Z,95644.08
2023-01-17T22:38:27.285Z,95641.37
2023-01-17T22:41:08.134Z,95640.76
2023-01-17T22:43:40.612Z,95634.47
2023-01-17T22:46:10.981Z,95637.14
2023-01-17T22:48:42.576Z,95644.58
2023-01-17T22:51:13.142Z,95639.79
2023-01-17T22:53:44.367Z,95631.73
2023-01-17T22:56:18.691Z,95627.95
2023-01-17T22:58:48.939Z,95633.58
2023-01-17T23:01:18.747Z,95637.31
2023-01-17T23:03:52.490Z,95637.39
2023-01-17T23:06:23.988Z,95635.34
2023-01-17T23:08:55.655Z,95635.97
2023-01-17T23:11:39.016Z,95634.61
2023-01-17T23:14:17.599Z,95638.45
2023-01-17T23:17:21.326Z,95635.62
2023-01-17T23:20:01.755Z,95629.46
2023-01-17T23:22:37.187Z,95625.80
2023-01-17T23:25:20.099Z,95620.77
2023-01-17T23:28:09.579Z,95615.73
2023-01-17T23:30:48.186Z,95612.50
2023-01-17T23:33:17.808Z,95605.95
2023-01-17T23:36:00.979Z,95605.86
2023-01-17T23:38:37.790Z,95614.65
2023-01-17T23:41:29.321Z,95615.99
2023-01-17T23:44:01.972Z,95616.02
2023-01-17T23:46:37.585Z,95623.45
2023-01-17T23:49:13.917Z,95614.73
2023-01-17T23:51:53.291Z,95615.55
2023-01-17T23:54:25.813Z,95602.80
2023-01-17T23:56:56.378Z,95603.17
2023-01-17T23:59:32.625Z,95601.42
